ESOWESSD

Guest
Details From ESOW - Vasteras
To ESSD - Borlange
Flight Number -
Tags generated
Created
Modified
Stats Distance 61 nm / 112 km
Max Altitude 0 ft / 0 m
Waypoints 3
Social Downloads 0
Likes 0
Share VATSIM

Download

Looking for another format? Having issues loading an existing format? Contact us
Advertisement - Login to hide

Notes

Basic altitude profile: - Ascent Rate: 2000ft/min - Ascent Speed: 100kts - Cruise Altitude: 8000ft - Cruise Speed: 100kts - Descent Rate: 2000ft/min - Descent Speed: 100kts Options: - Use NATs: yes - Use PACOTS: yes - Use low airways: yes - Use high airways: yes

Route

ESOW BOR ESSD

ID Type Via Altitude Latitude Longitude Leg Dist Tot Dist Heading (true) Name
O ESOW APT - 0 ft / 0 m 59.58983˚ 16.63386˚ - 0 nm - Vasteras
BOR VOR - 0 ft / 0 m 60.42150˚ 15.51919˚ 60 nm 60 nm 327° / 326° BORLANGE VOR-DME
O ESSD APT - 0 ft / 0 m 60.42442˚ 15.50584˚ 0 nm 60 nm 294° / 294° Borlange

Altitude Profile

Advertisement - Login to hide

ESOW

Details ICAO ESOW (VST)
Name Vasteras
Region Sweden
Timezone Europe/Stockholm (UTC+1.0)
Stats Elevation 21 ft / 6 m (AMSL)
Location 59.589829° 16.633862°
Runways 1
Magnetic Variation 5.579° E

METAR

ESOW 142220Z AUTO 02012KT 9999 -DZ FEW007/// SCT036/// BKN049/// 01/M00 Q0980

Decode

TAF

Not found

Departure Runways

ID Width Length Bearing (true) Bearing (mag) Surface Threshold Offset Overrun Length
01 151 ft / 46 m 8,454 ft / 2,577 m 11.62° 6.04° Asphalt 1,309 ft / 399 m 0 ft / 0 m
19 151 ft / 46 m 8,454 ft / 2,577 m 191.63° 186.05° Asphalt 0 ft / 0 m 0 ft / 0 m

ESSD

Details ICAO ESSD (BLE)
Name Borlange
Region Sweden
Timezone Europe/Stockholm (UTC+1.0)
Stats Elevation 503 ft / 153 m (AMSL)
Location 60.424422° 15.505841°
Runways 2
Magnetic Variation 5.243° E

METAR

ESSD 142220Z AUTO 02004KT 5000 SG OVC002/// 00/M00 Q0982

Decode

TAF

Not found

Destination Runways

ID Width Length Bearing (true) Bearing (mag) Surface Threshold Offset Overrun Length
12 163 ft / 50 m 2,362 ft / 720 m 120.00° 114.76° Grass 0 ft / 0 m 0 ft / 0 m
14 148 ft / 45 m 7,561 ft / 2,305 m 132.46° 127.22° Asphalt 0 ft / 0 m 210 ft / 64 m
30 163 ft / 50 m 2,362 ft / 720 m 300.00° 294.76° Grass 0 ft / 0 m 0 ft / 0 m
32 148 ft / 45 m 7,561 ft / 2,305 m 312.49° 307.25° Asphalt 0 ft / 0 m 113 ft / 34 m

Approach Navaids

Runway Type Ident Frequency Range Bearing (true) Bearing (mag) Slope Elevation
32 Localiser SD 109.50 MHz 18 nm / 33 km 312.44° 307.20° - 503 ft / 153 m (AMSL)
32 Glidescope SD 109.50 MHz 10 nm / 19 km 312.48° 307.23° 3.00° 503 ft / 153 m (AMSL)